tititudorancea.com
Station Historical Data
Daily Summary for November 09, 2018 Units:  Metric    English   Both
« Previous Day
Next Day »
Daily Weekly Monthly Yearly Custom
  High: Low: Average:
Temperature: -17.8 °C 5.3 °C 12.1 °C
Dew Point: -17.8 °C 3.4 °C 5.8 °C
Humidity: Humidity % 40 % 68 %
Wind Speed: 0 km/h 0 km/h 10.9 km/h
Wind Gust: 0 km/h - -
Wind:- - West
Pressure: 0 hPa 1015.8 hPa -
Precipitation: 0 mm    
Historical Graphs
 
 
Ararat weather Find more about Weather in Ararat, AU


 



 


Tabular Data for November 09, 2018
Time Temperature Dew Point Pressure Wind Wind Speed Wind Gust Humidity Rainfall Rate (Hourly)
-17.8 °C -17.8 °C 0 hPa Calm     Humidity % 0 mm
00:04 9.2 °C 5.2 °C 1020.2 hPa SW 3.7 km/h 1.3 km/h 76 % 0 mm
00:09 9.1 °C 5.1 °C 1020.2 hPa Calm     76 % 0 mm
00:14 8.8 °C 5 °C 1020.2 hPa Calm     77 % 0 mm
00:19 8.7 °C 5.1 °C 1020.2 hPa SW 3.7 km/h 1.3 km/h 78 % 0 mm
00:24 8.5 °C 5.1 °C 1020.2 hPa Calm     79 % 0 mm
00:29 8.2 °C 5 °C 1020.2 hPa SW 5.6 km/h 3.9 km/h 80 % 0 mm
00:34 8.1 °C 5 °C 1019.9 hPa Calm     81 % 0 mm
00:39 8 °C 5.1 °C 1019.9 hPa Calm     82 % 0 mm
00:44 7.9 °C 5.2 °C 1019.9 hPa Calm     83 % 0 mm
00:49 7.7 °C 5 °C 1019.9 hPa Calm     83 % 0 mm
00:54 7.6 °C 4.8 °C 1019.9 hPa Calm     83 % 0 mm
00:59 7.4 °C 4.9 °C 1019.9 hPa Calm     84 % 0 mm
01:04 7.4 °C 4.8 °C 1019.9 hPa Calm     84 % 0 mm
01:09 7.2 °C 4.7 °C 1019.9 hPa Calm     84 % 0 mm
01:14 6.9 °C 4.4 °C 1019.9 hPa SW 1.6 km/h 0.2 km/h 84 % 0 mm
01:19 6.8 °C 4.5 °C 1019.5 hPa SW 5.6 km/h 2.6 km/h 85 % 0 mm
01:24 6.7 °C 4.6 °C 1019.5 hPa WSW 3.7 km/h   86 % 0 mm
01:29 6.7 °C 4.7 °C 1019.5 hPa WSW 3.7 km/h 2.9 km/h 87 % 0 mm
01:34 6.7 °C 4.7 °C 1019.5 hPa SW 3.2 km/h 1 km/h 87 % 0 mm
01:39 6.6 °C 4.6 °C 1019.5 hPa Calm     87 % 0 mm
01:44 6.5 °C 4.5 °C 1019.5 hPa Calm     87 % 0 mm
01:49 6.4 °C 4.4 °C 1019.5 hPa Calm     87 % 0 mm
01:54 6.3 °C 4.3 °C 1019.5 hPa Calm     87 % 0 mm
01:59 6.3 °C 4.5 °C 1019.5 hPa Calm     88 % 0 mm
02:04 6.4 °C 4.6 °C 1019.2 hPa Calm     88 % 0 mm
02:09 6.4 °C 4.7 °C 1019.2 hPa Calm     89 % 0 mm
02:14 6.4 °C 4.6 °C 1019.2 hPa Calm     88 % 0 mm
02:19 6.3 °C 4.7 °C 1019.2 hPa Calm     89 % 0 mm
02:24 6.3 °C 4.4 °C 1019.2 hPa Calm     88 % 0 mm
02:29 6.2 °C 4.5 °C 1018.8 hPa Calm     89 % 0 mm
02:34 6 °C 4.2 °C 1019.2 hPa Calm     88 % 0 mm
02:39 5.9 °C 4.1 °C 1018.8 hPa Calm     88 % 0 mm
02:44 5.8 °C 4.1 °C 1018.8 hPa Calm     89 % 0 mm
02:49 5.7 °C 4 °C 1018.8 hPa Calm     89 % 0 mm
02:54 5.6 °C 3.9 °C 1018.8 hPa Calm     89 % 0 mm
02:59 5.5 °C 3.8 °C 1018.8 hPa SW 3.2 km/h 0.3 km/h 89 % 0 mm
03:04 5.4 °C 3.8 °C 1018.8 hPa SW 3.7 km/h 1.9 km/h 89 % 0 mm
03:09 5.3 °C 3.7 °C 1018.8 hPa SW 3.7 km/h 1.1 km/h 89 % 0 mm
03:14 5.4 °C 3.9 °C 1018.8 hPa Calm   0.3 km/h 90 % 0 mm
03:19 5.5 °C 4.2 °C 1018.8 hPa Calm     91 % 0 mm
03:24 5.6 °C 4.3 °C 1018.8 hPa WSW 3.7 km/h 1.6 km/h 91 % 0 mm
03:29 5.7 °C 4.4 °C 1018.8 hPa Calm     91 % 0 mm
03:34 6 °C 4.7 °C 1018.8 hPa North 1.9 km/h 0.6 km/h 91 % 0 mm
03:39 6.3 °C 5.1 °C 1018.8 hPa SW 5.6 km/h 4.3 km/h 92 % 0 mm
03:44 6.7 °C 5.3 °C 1018.8 hPa SW 3.7 km/h 3.7 km/h 91 % 0 mm
03:49 7.1 °C 5.7 °C 1018.5 hPa SW 5.6 km/h 3.4 km/h 91 % 0 mm
03:54 7.5 °C 5.9 °C 1018.8 hPa SW 5.6 km/h 2.7 km/h 90 % 0 mm
03:59 7.9 °C 6 °C 1018.5 hPa SW 5.6 km/h 3.7 km/h 88 % 0 mm
04:04 8.2 °C 5.9 °C 1018.5 hPa SW 5.6 km/h 4 km/h 86 % 0 mm
04:09 8.4 °C 6 °C 1018.5 hPa SW 6.4 km/h 5.8 km/h 85 % 0 mm
04:14 8.6 °C 6 °C 1018.2 hPa North 6.4 km/h 4.7 km/h 84 % 0 mm
04:19 8.7 °C 5.9 °C 1018.2 hPa WSW 5.6 km/h 3.9 km/h 83 % 0 mm
04:24 8.7 °C 5.8 °C 1018.5 hPa SW 3.7 km/h 1.9 km/h 82 % 0 mm
04:29 8.8 °C 5.9 °C 1018.2 hPa SW 1.9 km/h 0.5 km/h 82 % 0 mm
04:34 8.8 °C 5.7 °C 1018.2 hPa Calm     81 % 0 mm
04:39 8.8 °C 5.7 °C 1018.5 hPa Calm     81 % 0 mm
04:44 8.7 °C 5.8 °C 1018.2 hPa Calm     82 % 0 mm
04:49 8.5 °C 5.6 °C 1018.2 hPa WSW 3.7 km/h 3.1 km/h 82 % 0 mm
04:54 8.4 °C 5.7 °C 1018.2 hPa SW 5.6 km/h 2.9 km/h 83 % 0 mm
04:59 8.2 °C 5.5 °C 1018.2 hPa WSW 5.6 km/h 3.7 km/h 83 % 0 mm
05:04 8.2 °C 5.4 °C 1018.5 hPa SW 3.7 km/h 1.1 km/h 83 % 0 mm
05:09 8.1 °C 5.6 °C 1018.5 hPa North 3.7 km/h 1.4 km/h 84 % 0 mm
05:14 8.1 °C 5.6 °C 1018.5 hPa SW 1.9 km/h   84 % 0 mm
05:19 8.1 °C 5.6 °C 1018.5 hPa Calm     84 % 0 mm
05:24 8.1 °C 5.6 °C 1018.5 hPa SW 3.7 km/h 3.4 km/h 84 % 0 mm
05:29 8.2 °C 5.6 °C 1018.5 hPa SW 3.7 km/h 1.8 km/h 84 % 0 mm
05:34 8.2 °C 5.7 °C 1018.5 hPa SW 3.7 km/h 1.9 km/h 84 % 0 mm
05:39 8.3 °C 5.8 °C 1018.5 hPa WSW 3.7 km/h 0.6 km/h 84 % 0 mm
05:44 8.4 °C 5.8 °C 1018.5 hPa SW 3.7 km/h 2.7 km/h 84 % 0 mm
05:49 8.6 °C 5.8 °C 1018.5 hPa North 5.6 km/h 3.9 km/h 83 % 0 mm
05:54 8.7 °C 5.8 °C 1018.5 hPa SW 5.6 km/h 3.7 km/h 82 % 0 mm
05:59 8.8 °C 5.9 °C 1018.5 hPa WSW 5.6 km/h 4 km/h 82 % 0 mm
06:04 8.9 °C 5.8 °C 1018.5 hPa WSW 7.4 km/h 5.1 km/h 81 % 0 mm
06:09 9 °C 5.7 °C 1018.5 hPa North 11.1 km/h 4.2 km/h 80 % 0 mm
06:14 9.1 °C 5.8 °C 1018.8 hPa WSW 7.4 km/h 5.1 km/h 80 % 0 mm
06:19 9.1 °C 5.8 °C 1018.8 hPa WSW 9.3 km/h 4.3 km/h 80 % 0 mm
06:24 9.1 °C 5.7 °C 1018.8 hPa WSW 5.6 km/h 5.5 km/h 79 % 0 mm
06:29 9.1 °C 5.6 °C 1018.8 hPa WSW 5.6 km/h 6.3 km/h 79 % 0 mm
06:34 9.1 °C 5.6 °C 1018.8 hPa WSW 9.3 km/h 6.4 km/h 79 % 0 mm
06:39 9 °C 5.6 °C 1018.8 hPa WSW 7.4 km/h 4.3 km/h 79 % 0 mm
06:44 8.9 °C 5.6 °C 1018.8 hPa WSW 11.1 km/h 4.8 km/h 80 % 0 mm
06:49 8.8 °C 5.6 °C 1018.8 hPa North 7.4 km/h 7.2 km/h 80 % 0 mm
06:54 8.8 °C 5.5 °C 1018.8 hPa WSW 7.4 km/h 3.5 km/h 80 % 0 mm
06:59 8.7 °C 5.7 °C 1018.8 hPa North 7.4 km/h 5.6 km/h 81 % 0 mm
07:04 8.7 °C 5.7 °C 1018.8 hPa WSW 8 km/h 6.6 km/h 81 % 0 mm
07:09 8.7 °C 5.7 °C 1018.8 hPa WSW 5.6 km/h 3.9 km/h 81 % 0 mm
07:14 8.7 °C 5.7 °C 1018.8 hPa WSW 5.6 km/h 5.6 km/h 81 % 0 mm
07:19 8.8 °C 5.7 °C 1018.8 hPa WSW 7.4 km/h 7.1 km/h 81 % 0 mm
07:24 8.8 °C 5.7 °C 1018.8 hPa WSW 6.4 km/h 6.6 km/h 81 % 0 mm
07:29 8.9 °C 5.8 °C 1019.2 hPa West 9.3 km/h 2.6 km/h 81 % 0 mm
07:34 8.9 °C 6.6 °C 1019.2 hPa West 11.1 km/h 8.7 km/h 85 % 0 mm
07:39 9.1 °C 5.9 °C 1019.2 hPa West 8 km/h 5.8 km/h 81 % 0 mm
07:44 9.2 °C 5.9 °C 1019.2 hPa North 14.8 km/h 10.8 km/h 80 % 0 mm
07:49 9.2 °C 5.9 °C 1019.2 hPa West 11.1 km/h 7.1 km/h 80 % 0 mm
07:54 9.3 °C 6.1 °C 1019.2 hPa North 13 km/h 7.4 km/h 80 % 0 mm
07:59 9.5 °C 6.2 °C 1019.2 hPa West 13 km/h 6 km/h 80 % 0 mm
08:04 9.6 °C 6.3 °C 1019.2 hPa West 8 km/h 3.9 km/h 80 % 0 mm
08:09 9.8 °C 6.3 °C 1019.2 hPa West 11.1 km/h 6.3 km/h 79 % 0 mm
08:14 9.9 °C 6.3 °C 1019.2 hPa West 13 km/h 9.2 km/h 78 % 0 mm
08:19 10.1 °C 6.4 °C 1019.2 hPa West 11.1 km/h 8.2 km/h 78 % 0 mm
08:24 10.1 °C 6.3 °C 1019.2 hPa North 11.1 km/h 10.5 km/h 77 % 0 mm
08:29 10.1 °C 6.4 °C 1019.2 hPa WNW 11.1 km/h 10.1 km/h 78 % 0 mm
08:34 10.3 °C 6.6 °C 1019.2 hPa WNW 7.4 km/h 3.1 km/h 78 % 0 mm
08:39 10.4 °C 6.7 °C 1019.2 hPa WNW 7.4 km/h 6.1 km/h 78 % 0 mm
08:44 10.6 °C 6.9 °C 1019.2 hPa WNW 6.4 km/h 5.6 km/h 78 % 0 mm
08:49 10.7 °C 6.8 °C 1018.8 hPa WNW 11.1 km/h 7.4 km/h 77 % 0 mm
08:54 11.1 °C 7.4 °C 1019.2 hPa WNW 9.3 km/h 3.9 km/h 78 % 0 mm
08:59 11.4 °C 7.3 °C 1019.2 hPa WNW 7.4 km/h 6.1 km/h 76 % 0 mm
09:04 11.7 °C 7.2 °C 1019.2 hPa WNW 9.3 km/h 2.6 km/h 74 % 0 mm
09:09 11.9 °C 7.2 °C 1019.2 hPa WNW 13 km/h 5.1 km/h 73 % 0 mm
09:14 12.1 °C 7.2 °C 1019.2 hPa WNW 11.1 km/h 4 km/h 72 % 0 mm
09:19 12.3 °C 7.2 °C 1019.2 hPa WNW 7.4 km/h 5 km/h 71 % 0 mm
09:24 12.5 °C 7.2 °C 1019.2 hPa WNW 9.3 km/h 6 km/h 70 % 0 mm
09:29 12.8 °C 7.2 °C 1019.2 hPa WNW 11.3 km/h 6.8 km/h 69 % 0 mm
09:34 12.8 °C 7.1 °C 1019.2 hPa North 13 km/h 9.3 km/h 68 % 0 mm
09:39 13.1 °C 6.9 °C 1019.2 hPa WNW 17.7 km/h 15.6 km/h 66 % 0 mm
09:44 12.9 °C 6 °C 1019.2 hPa NW 14.8 km/h 12.2 km/h 63 % 0 mm
09:49 13 °C 5.7 °C 1019.2 hPa WNW 24.1 km/h 16.6 km/h 61 % 0 mm
09:54 13.1 °C 5.7 °C 1019.2 hPa WNW 18.5 km/h 12.9 km/h 61 % 0 mm
09:59 13.1 °C 5.4 °C 1018.8 hPa West 18.5 km/h 14 km/h 60 % 0 mm
10:04 13.1 °C 5.5 °C 1018.8 hPa NW 20.4 km/h 17.1 km/h 60 % 0 mm
10:09 13.4 °C 5.8 °C 1018.8 hPa WNW 22.2 km/h 16.1 km/h 60 % 0 mm
10:14 14.1 °C 5.4 °C 1018.8 hPa North 22.2 km/h 9.7 km/h 56 % 0 mm
10:19 14.4 °C 6 °C 1018.8 hPa WNW 18.5 km/h 14.6 km/h 57 % 0 mm
10:24 14.4 °C 5.5 °C 1018.8 hPa NW 24.1 km/h 13.5 km/h 55 % 0 mm
10:29 14.4 °C 5 °C 1018.8 hPa WNW 20.4 km/h 22.4 km/h 53 % 0 mm
10:34 14.7 °C 5.2 °C 1018.8 hPa NW 14.8 km/h 11.7 km/h 53 % 0 mm
10:39 14.9 °C 5.4 °C 1018.8 hPa WNW 20.9 km/h 19.2 km/h 53 % 0 mm
10:44 14.6 °C 5.4 °C 1018.8 hPa NNW 20.4 km/h 15.4 km/h 54 % 0 mm
10:49 14.8 °C 5.3 °C 1018.8 hPa North 20.4 km/h 13.5 km/h 53 % 0 mm
10:54 15.2 °C 5.7 °C 1018.8 hPa North 18.5 km/h 12.4 km/h 53 % 0 mm
10:59 15.4 °C 5.6 °C 1018.8 hPa NW 20.4 km/h 15 km/h 52 % 0 mm
11:04 15.5 °C 5.7 °C 1018.8 hPa NNW 20.4 km/h 17.4 km/h 52 % 0 mm
11:09 15.3 °C 4.9 °C 1018.8 hPa NW 22.2 km/h 19.8 km/h 50 % 0 mm
11:14 15.3 °C 5.2 °C 1018.8 hPa NW 16.1 km/h 10.3 km/h 51 % 0 mm
11:19 15.4 °C 5 °C 1018.5 hPa North 18.5 km/h 12.2 km/h 50 % 0 mm
11:24 15.6 °C 5.2 °C 1018.5 hPa NW 18.5 km/h 11.3 km/h 50 % 0 mm
11:29 15.8 °C 5.4 °C 1018.5 hPa NNW 27.8 km/h 12.7 km/h 50 % 0 mm
11:34 15.9 °C 4.9 °C 1018.5 hPa NW 18.5 km/h 15.1 km/h 48 % 0 mm
11:39 16.1 °C 5.3 °C 1018.5 hPa NW 31.5 km/h 12.6 km/h 49 % 0 mm
11:44 16.2 °C 5.1 °C 1018.5 hPa WNW 16.7 km/h 14.3 km/h 48 % 0 mm
11:49 16.2 °C 5.2 °C 1018.2 hPa NW 33.3 km/h 9.7 km/h 48 % 0 mm
11:54 16.2 °C 5.2 °C 1018.2 hPa WNW 18.5 km/h 13.8 km/h 48 % 0 mm
11:59 15.7 °C 4.7 °C 1018.2 hPa NW 20.4 km/h 8.9 km/h 48 % 0 mm
12:04 15.4 °C 4.5 °C 1018.2 hPa NW 25.9 km/h 17.1 km/h 48 % 0 mm
12:09 15.4 °C 4.1 °C 1018.2 hPa WNW 18.5 km/h 8.7 km/h 47 % 0 mm
12:14 15.5 °C 4.8 °C 1017.8 hPa WNW 14.8 km/h 10.6 km/h 49 % 0 mm
12:19 15.7 °C 5 °C 1017.8 hPa West 18.5 km/h 15 km/h 49 % 0 mm
12:24 16.1 °C 4.4 °C 1017.8 hPa NW 13 km/h 10.6 km/h 46 % 0 mm
12:29 15.9 °C 4.3 °C 1017.8 hPa NW 22.2 km/h 13.7 km/h 46 % 0 mm
12:34 16.2 °C 4.5 °C 1017.8 hPa NW 16.7 km/h 10.9 km/h 46 % 0 mm
12:39 16.4 °C 4.4 °C 1017.8 hPa NW 18.5 km/h 10.1 km/h 45 % 0 mm
12:44 16.8 °C 4.4 °C 1017.5 hPa NW 18.5 km/h 13.5 km/h 44 % 0 mm
12:49 16.8 °C 4.5 °C 1017.5 hPa WNW 22.5 km/h 18 km/h 44 % 0 mm
12:54 16.6 °C 4.3 °C 1017.5 hPa NW 18.5 km/h 15.8 km/h 44 % 0 mm
12:59 16.8 °C 4.5 °C 1017.5 hPa WNW 25.9 km/h 23.2 km/h 44 % 0 mm
13:04 17.3 °C 4.6 °C 1017.5 hPa WNW 31.5 km/h 18 km/h 43 % 0 mm
13:09 17.7 °C 4.6 °C 1017.2 hPa North 22.5 km/h 18.5 km/h 42 % 0 mm
13:14 17.7 °C 4.6 °C 1017.2 hPa WNW 20.4 km/h 13.5 km/h 42 % 0 mm
13:19 16.8 °C 3.8 °C 1017.2 hPa NW 19.3 km/h 16.9 km/h 42 % 0 mm
13:24 16.6 °C 4.3 °C 1017.2 hPa NNW 27.8 km/h 17.1 km/h 44 % 0 mm
13:29 17 °C 3.7 °C 1017.2 hPa NW 16.7 km/h 13 km/h 41 % 0 mm
13:34 16.7 °C 3.4 °C 1016.8 hPa NW 18.5 km/h 11.9 km/h 41 % 0 mm
13:39 16.7 °C 4.1 °C 1016.8 hPa NW 24.1 km/h 12.4 km/h 43 % 0 mm
13:44 16.7 °C 4.1 °C 1016.8 hPa North 20.4 km/h 17.1 km/h 43 % 0 mm
13:49 16.9 °C 4.9 °C 1016.8 hPa WNW 14.8 km/h 5.5 km/h 45 % 0 mm
13:54 17.3 °C 4.9 °C 1016.5 hPa West 24.1 km/h 15.3 km/h 44 % 0 mm
13:59 17.8 °C 4.7 °C 1016.5 hPa West 24.1 km/h 20.1 km/h 42 % 0 mm
14:04 17.8 °C 4 °C 1016.5 hPa NW 27.8 km/h 20.1 km/h 40 % 0 mm
14:09 17.6 °C 4.6 °C 1016.5 hPa NW 19.3 km/h 16.1 km/h 42 % 0 mm
14:14 18.4 °C 5.3 °C 1016.5 hPa WNW 18.5 km/h 11.4 km/h 42 % 0 mm
14:19 18.4 °C 4.6 °C 1016.5 hPa West 27.8 km/h 21.4 km/h 40 % 0 mm
14:24 17.9 °C 4.5 °C 1016.1 hPa WNW 14.8 km/h 11.7 km/h 41 % 0 mm
14:29 17.8 °C 4.4 °C 1016.1 hPa North 27.8 km/h 17.7 km/h 41 % 0 mm
14:34 17.6 °C 4.2 °C 1016.5 hPa NW 16.7 km/h 9.5 km/h 41 % 0 mm
14:39 17.4 °C 3.7 °C 1016.5 hPa North 20.9 km/h 15.8 km/h 40 % 0 mm
14:44 17.2 °C 4.2 °C 1016.5 hPa WSW 24.1 km/h 15.9 km/h 42 % 0 mm
14:49 17.7 °C 4.2 °C 1016.1 hPa WNW 29.6 km/h 16.6 km/h 41 % 0 mm
14:54 17.7 °C 4.6 °C 1016.5 hPa West 18.5 km/h 15.4 km/h 42 % 0 mm
14:59 17.6 °C 4.6 °C 1016.1 hPa WNW 20.4 km/h 13.2 km/h 42 % 0 mm
15:04 17.8 °C 5 °C 1016.1 hPa West 20.4 km/h 14 km/h 43 % 0 mm
15:09 17.8 °C 5.1 °C 1016.1 hPa WNW 22.2 km/h 15.8 km/h 43 % 0 mm
15:14 17.7 °C 5 °C 1016.1 hPa North 20.4 km/h 17.2 km/h 43 % 0 mm
15:19 17.7 °C 5 °C 1016.1 hPa WNW 18.5 km/h 14.5 km/h 43 % 0 mm
15:24 18.2 °C 5.4 °C 1015.8 hPa WNW 18.5 km/h 9 km/h 43 % 0 mm
15:29 18.2 °C 5.1 °C 1016.1 hPa North 19.3 km/h 17.5 km/h 42 % 0 mm
15:34 17.8 °C 5.1 °C 1016.1 hPa West 17.7 km/h 12.9 km/h 43 % 0 mm
15:39 17.7 °C 5.6 °C 1015.8 hPa WSW 18.5 km/h 13.7 km/h 45 % 0 mm
15:44 17.9 °C 5.2 °C 1015.8 hPa WSW 22.2 km/h 16.3 km/h 43 % 0 mm
15:49 17.8 °C 4.7 °C 1015.8 hPa West 20.4 km/h 13.4 km/h 42 % 0 mm
15:54 17.7 °C 5 °C 1015.8 hPa SW 18.5 km/h 12.1 km/h 43 % 0 mm
15:59 17.4 °C 5.1 °C 1015.8 hPa WSW 18.5 km/h 10 km/h 44 % 0 mm
16:04 17.2 °C 4.8 °C 1015.8 hPa North 16.7 km/h 14.5 km/h 44 % 0 mm
16:09 17.1 °C 5.3 °C 1015.8 hPa WSW 11.1 km/h 5.6 km/h 46 % 0 mm
16:14 17.1 °C 5.7 °C 1015.8 hPa WSW 14.8 km/h 10.6 km/h 47 % 0 mm
16:19 17.2 °C 5.4 °C 1015.8 hPa WSW 13 km/h 9 km/h 46 % 0 mm
16:24 17.2 °C 5.8 °C 1015.8 hPa SSW 20.4 km/h 15.4 km/h 47 % 0 mm
16:29 16.9 °C 7.3 °C 1015.8 hPa SSW 24.1 km/h 10.9 km/h 53 % 0 mm
16:34 16.8 °C 8 °C 1015.8 hPa South 18.5 km/h 16.7 km/h 56 % 0 mm
16:39 16.9 °C 8.3 °C 1015.8 hPa SSW 30.6 km/h 16.6 km/h 57 % 0 mm
16:44 16.6 °C 8.1 °C 1015.8 hPa North 29.6 km/h 16.4 km/h 57 % 0 mm
16:49 16 °C 8.5 °C 1015.8 hPa South 25.9 km/h 13.8 km/h 61 % 0 mm
16:54 15.6 °C 8.6 °C 1015.8 hPa South 20.4 km/h 12.6 km/h 63 % 0 mm
16:59 15.5 °C 8.7 °C 1016.1 hPa South 20.4 km/h 14.6 km/h 64 % 0 mm
17:04 15.5 °C 8 °C 1016.1 hPa SW 22.2 km/h 11.1 km/h 61 % 0 mm
17:09 15.6 °C 7.8 °C 1016.1 hPa SSW 27.8 km/h 10.6 km/h 60 % 0 mm
17:14 15.9 °C 8.2 °C 1015.8 hPa SSW 27.8 km/h 17.5 km/h 60 % 0 mm
17:19 16.1 °C 7.8 °C 1015.8 hPa SSW 20.4 km/h 17.1 km/h 58 % 0 mm
17:24 16.4 °C 7.8 °C 1015.8 hPa SSW 17.7 km/h 14.3 km/h 57 % 0 mm
17:29 16.6 °C 8 °C 1015.8 hPa North 20.4 km/h 14.6 km/h 57 % 0 mm
17:34 16.4 °C 7.9 °C 1016.1 hPa SSW 27.8 km/h 19.8 km/h 57 % 0 mm
17:39 16.3 °C 7.7 °C 1016.1 hPa SSW 25.9 km/h 14.3 km/h 57 % 0 mm
17:44 16.3 °C 7.8 °C 1016.1 hPa SSW 18.5 km/h 12.6 km/h 57 % 0 mm
17:49 16.4 °C 7.9 °C 1016.1 hPa SW 18.5 km/h 12.7 km/h 57 % 0 mm
17:54 16.4 °C 7.3 °C 1016.1 hPa SSW 25.9 km/h 17.7 km/h 55 % 0 mm
17:59 16.4 °C 7.8 °C 1016.1 hPa SSW 14.8 km/h 9.7 km/h 57 % 0 mm
18:04 16.5 °C 7.7 °C 1016.1 hPa SW 20.4 km/h 13.5 km/h 56 % 0 mm
18:09 16.6 °C 7.5 °C 1016.1 hPa SSW 18.5 km/h 11.3 km/h 55 % 0 mm
18:14 16.7 °C 7.6 °C 1016.1 hPa SSW 16.1 km/h 14.6 km/h 55 % 0 mm
18:19 16.7 °C 7.6 °C 1016.1 hPa WSW 18.5 km/h 12.1 km/h 55 % 0 mm
18:24 16.8 °C 7.7 °C 1016.1 hPa SSW 16.7 km/h 15.1 km/h 55 % 0 mm
18:29 16.8 °C 7.7 °C 1016.1 hPa SW 14.8 km/h 8.4 km/h 55 % 0 mm
18:34 16.8 °C 7.7 °C 1016.1 hPa WSW 16.7 km/h 12.2 km/h 55 % 0 mm
18:39 16.7 °C 7.6 °C 1016.1 hPa SSW 18.5 km/h 9 km/h 55 % 0 mm
18:44 16.7 °C 7.6 °C 1016.1 hPa SW 18.5 km/h 13.2 km/h 55 % 0 mm
18:49 16.3 °C 7.7 °C 1016.1 hPa SSW 18.5 km/h 10.6 km/h 57 % 0 mm
18:54 16.1 °C 7.8 °C 1016.1 hPa SSW 13 km/h 7.9 km/h 58 % 0 mm
18:59 16 °C 7.7 °C 1016.1 hPa SSW 14.8 km/h 10 km/h 58 % 0 mm
19:04 15.9 °C 7.9 °C 1016.1 hPa North 11.1 km/h 6.1 km/h 59 % 0 mm
19:09 16.1 °C 7.8 °C 1016.1 hPa SSW 3.7 km/h 0.3 km/h 58 % 0 mm
19:14 16.3 °C 7.7 °C 1016.1 hPa North 5.6 km/h 5.1 km/h 57 % 0 mm
19:19 16.4 °C 7.3 °C 1016.1 hPa SW 13 km/h 10.5 km/h 55 % 0 mm
19:24 16.2 °C 7.2 °C 1016.1 hPa SW 18.5 km/h 9.3 km/h 55 % 0 mm
19:29 16.1 °C 7.3 °C 1016.5 hPa SW 11.3 km/h 9.5 km/h 56 % 0 mm
19:34 15.9 °C 7.4 °C 1016.5 hPa SW 13 km/h 5.1 km/h 57 % 0 mm
19:39 15.7 °C 7.5 °C 1016.5 hPa SW 14.5 km/h 9.2 km/h 58 % 0 mm
19:44 15.4 °C 7.2 °C 1016.5 hPa SW 14.8 km/h 10 km/h 58 % 0 mm
19:49 15.2 °C 7 °C 1016.5 hPa SW 13 km/h 11.3 km/h 58 % 0 mm
19:54 15 °C 7.3 °C 1016.8 hPa SW 13 km/h 4.2 km/h 60 % 0 mm
19:59 14.8 °C 7.1 °C 1016.8 hPa North 9.7 km/h 6.9 km/h 60 % 0 mm
20:04 14.6 °C 7.2 °C 1016.8 hPa SW 9.3 km/h 5.3 km/h 61 % 0 mm
20:09 14.4 °C 7 °C 1016.8 hPa SW 11.3 km/h 10.1 km/h 61 % 0 mm
20:14 14.3 °C 7.1 °C 1017.2 hPa SSW 13 km/h 7.1 km/h 62 % 0 mm
20:19 14.1 °C 7.2 °C 1017.2 hPa SSW 7.4 km/h 7.4 km/h 63 % 0 mm
20:24 14 °C 7.3 °C 1017.2 hPa SSW 16.1 km/h 4 km/h 64 % 0 mm
20:29 13.8 °C 7.1 °C 1017.2 hPa SSW 9.3 km/h 4.8 km/h 64 % 0 mm
20:34 13.6 °C 7.2 °C 1017.2 hPa SSW 9.3 km/h 5.8 km/h 65 % 0 mm
20:39 13.5 °C 7.3 °C 1017.2 hPa SSW 5.6 km/h 3.5 km/h 66 % 0 mm
20:44 13.3 °C 7.3 °C 1017.2 hPa SSW 9.3 km/h 2.1 km/h 67 % 0 mm
20:49 13.2 °C 7.4 °C 1017.2 hPa SSW 7.4 km/h 3.1 km/h 68 % 0 mm
20:54 13.1 °C 7.3 °C 1017.2 hPa SSW 5.6 km/h 1.9 km/h 68 % 0 mm
20:59 12.9 °C 7.3 °C 1017.2 hPa SSW 3.7 km/h   69 % 0 mm
21:04 12.6 °C 7 °C 1017.2 hPa North 5.6 km/h 3.9 km/h 69 % 0 mm
21:09 12.2 °C 6.9 °C 1017.5 hPa North 1.9 km/h   70 % 0 mm
21:14 11.9 °C 6.8 °C 1017.5 hPa Calm     71 % 0 mm
21:19 11.7 °C 6.8 °C 1017.5 hPa Calm     72 % 0 mm
21:24 11.4 °C 6.5 °C 1017.5 hPa Calm     72 % 0 mm
21:29 11.2 °C 6.5 °C 1017.5 hPa Calm   0.2 km/h 73 % 0 mm
21:34 11 °C 6.6 °C 1017.8 hPa SSW 1.9 km/h 0.5 km/h 74 % 0 mm
21:39 10.8 °C 6.6 °C 1017.8 hPa Calm     75 % 0 mm
21:44 10.7 °C 6.6 °C 1017.8 hPa Calm     76 % 0 mm
21:49 10.5 °C 6.4 °C 1017.8 hPa Calm     76 % 0 mm
21:54 10.3 °C 6.4 °C 1017.8 hPa Calm     77 % 0 mm
21:59 10.2 °C 6.7 °C 1017.8 hPa Calm     79 % 0 mm
22:04 10.1 °C 6.8 °C 1018.2 hPa Calm     80 % 0 mm
22:09 10 °C 6.7 °C 1017.8 hPa Calm     80 % 0 mm
22:14 9.9 °C 6.7 °C 1017.8 hPa Calm     80 % 0 mm
22:19 9.9 °C 6.8 °C 1017.8 hPa SSW 1.9 km/h   81 % 0 mm
22:24 9.8 °C 6.7 °C 1017.8 hPa Calm     81 % 0 mm
22:29 9.7 °C 6.7 °C 1018.2 hPa SSW 3.7 km/h 2.4 km/h 82 % 0 mm
22:34 9.7 °C 6.9 °C 1017.8 hPa SSW 3.7 km/h 1.3 km/h 83 % 0 mm
22:39 9.6 °C 6.9 °C 1018.2 hPa SSW 3.7 km/h 2.7 km/h 83 % 0 mm
22:44 9.6 °C 6.8 °C 1018.2 hPa Calm     83 % 0 mm
22:49 9.4 °C 6.7 °C 1018.2 hPa Calm     83 % 0 mm
22:54 9.3 °C 6.7 °C 1018.2 hPa Calm     84 % 0 mm
22:59 9.3 °C 6.9 °C 1017.8 hPa North 3.7 km/h 2.6 km/h 85 % 0 mm
23:04 9.2 °C 6.7 °C 1018.2 hPa Calm     84 % 0 mm
23:09 9.1 °C 6.7 °C 1018.2 hPa Calm     85 % 0 mm
23:14 8.9 °C 6.6 °C 1018.2 hPa Calm     85 % 0 mm
23:19 8.8 °C 6.6 °C 1018.2 hPa Calm     86 % 0 mm
23:24 8.8 °C 6.6 °C 1018.2 hPa Calm     86 % 0 mm
23:29 8.7 °C 6.5 °C 1017.8 hPa Calm     86 % 0 mm
23:34 8.6 °C 6.4 °C 1017.8 hPa Calm     86 % 0 mm
23:39 8.5 °C 6.4 °C 1017.8 hPa Calm     87 % 0 mm
23:44 8.4 °C 6.4 °C 1017.8 hPa Calm     87 % 0 mm
23:49 8.4 °C 6.6 °C 1017.8 hPa Calm     88 % 0 mm
23:54 8.4 °C 6.6 °C 1017.8 hPa Calm     88 % 0 mm
23:59 8.4 °C 6.6 °C 1017.8 hPa Calm     88 % 0 mm
Ararat Weather
Compliments of Weather Underground - 2.25 mb
Click here to send mail.


ABOUT

Live weather data from Ararat, Victoria, Australia, 3377
Data uploaded from Cumulus every 5 minutes to Weather Underground.
This site then downloads the raw data for formatting and display.
Metric and imperial data can be displayed. Graphs and historical data available.
Includes Sun and Moon times and rain image live from BOM.

Check out Ararat Weather on Facebook, Twitter and Google +

Help support ongoing costs by checking out the ads





Follow @AraratWeather